Time;durP1;ratioP1;P1;durP2;ratioP2;P2;SDS_P1;SDS_P2;PMS_P1;PMS_P2;Temp;Humidity;BMP_temperature;BMP_pressure;BME280_temperature;BME280_humidity;BME280_pressure;Samples;Min_cycle;Max_cycle;Signal;HPM_P1;HPM_P2
2023/01/21 00:02:17;;;;;;;16.60;11.07;;;;;;;;;;5039794;28;20040;-64
2023/01/21 00:04:42;;;;;;;19.02;10.43;;;;;;;;;;5036483;28;20503;-67
2023/01/21 00:07:08;;;;;;;26.20;15.02;;;;;;;;;;5039209;28;20654;-65
2023/01/21 00:09:34;;;;;;;23.13;13.68;;;;;;;;;;5040104;28;20044;-67
2023/01/21 00:12:03;;;;;;;22.25;9.52;;;;;;;;;;5039830;28;20040;-65
2023/01/21 00:14:29;;;;;;;23.30;12.55;;;;;;;;;;5035889;28;20038;-67
2023/01/21 00:16:57;;;;;;;20.30;11.05;;;;;;;;;;5038906;28;20039;-65
2023/01/21 00:19:24;;;;;;;29.52;14.18;;;;;;;;;;5053900;28;20041;-64
2023/01/21 00:21:50;;;;;;;22.23;12.27;;;;;;;;;;5057311;28;20041;-66
2023/01/21 00:24:16;;;;;;;11.98;8.23;;;;;;;;;;5053196;28;20091;-65
2023/01/21 00:26:41;;;;;;;9.07;5.78;;;;;;;;;;5038780;28;20037;-66
2023/01/21 00:29:09;;;;;;;8.70;6.13;;;;;;;;;;5040133;28;20108;-65
2023/01/21 00:31:34;;;;;;;11.35;8.30;;;;;;;;;;5025405;28;20120;-67
2023/01/21 00:34:00;;;;;;;15.65;9.43;;;;;;;;;;5026155;28;20544;-65
2023/01/21 00:36:28;;;;;;;20.65;13.32;;;;;;;;;;5039900;28;20036;-65
2023/01/21 00:38:57;;;;;;;15.35;10.50;;;;;;;;;;5039416;28;20488;-65
2023/01/21 00:41:25;;;;;;;19.25;12.13;;;;;;;;;;5046354;28;20036;-66
2023/01/21 00:43:51;;;;;;;15.23;9.18;;;;;;;;;;5036938;28;20040;-65
2023/01/21 00:46:17;;;;;;;15.75;11.43;;;;;;;;;;5040289;28;20033;-65
2023/01/21 00:48:44;;;;;;;17.52;10.95;;;;;;;;;;5035413;28;20056;-65
2023/01/21 00:51:09;;;;;;;15.68;10.93;;;;;;;;;;5041128;28;20127;-66
2023/01/21 00:53:42;;;;;;;23.08;12.23;;;;;;;;;;5045257;28;20548;-65
2023/01/21 00:56:12;;;;;;;19.33;12.20;;;;;;;;;;5045029;28;20037;-67
2023/01/21 00:58:38;;;;;;;19.85;12.30;;;;;;;;;;5044420;28;20029;-65
2023/01/21 01:01:13;;;;;;;20.50;12.35;;;;;;;;;;5046560;28;20025;-64
2023/01/21 01:03:40;;;;;;;18.88;11.38;;;;;;;;;;5044521;28;20040;-65
2023/01/21 01:06:12;;;;;;;12.15;10.10;;;;;;;;;;5040496;28;20025;-65
2023/01/21 01:08:37;;;;;;;19.00;11.52;;;;;;;;;;5033901;28;20480;-67
2023/01/21 01:11:03;;;;;;;18.10;10.52;;;;;;;;;;5037385;28;20055;-65
2023/01/21 01:13:30;;;;;;;18.40;10.93;;;;;;;;;;5020200;28;20592;-64
2023/01/21 01:15:57;;;;;;;16.98;11.10;;;;;;;;;;5036064;28;21112;-67
2023/01/21 01:18:24;;;;;;;15.85;11.10;;;;;;;;;;5037674;28;20400;-66
2023/01/21 01:20:51;;;;;;;21.27;12.15;;;;;;;;;;5039229;28;20040;-65
2023/01/21 01:23:16;;;;;;;13.23;10.00;;;;;;;;;;5042704;28;20039;-65
2023/01/21 01:25:42;;;;;;;20.77;13.07;;;;;;;;;;5036681;28;20401;-65
2023/01/21 01:28:08;;;;;;;18.73;11.50;;;;;;;;;;5040203;28;20522;-65
2023/01/21 01:30:34;;;;;;;17.33;12.73;;;;;;;;;;5038980;28;20040;-65
2023/01/21 01:33:00;;;;;;;19.65;11.63;;;;;;;;;;5037567;28;20262;-65
2023/01/21 01:35:25;;;;;;;16.17;11.40;;;;;;;;;;5036724;28;20761;-65
2023/01/21 01:37:52;;;;;;;15.93;10.55;;;;;;;;;;5037318;28;20128;-64
2023/01/21 01:40:18;;;;;;;19.38;11.75;;;;;;;;;;5036900;28;20037;-65
2023/01/21 01:42:43;;;;;;;16.60;11.30;;;;;;;;;;5035709;28;20581;-65
2023/01/21 01:45:19;;;;;;;7.88;6.93;;;;;;;;;;5034938;28;20040;-66
2023/01/21 01:47:57;;;;;;;22.30;12.00;;;;;;;;;;5040456;28;20060;-65
2023/01/21 01:50:29;;;;;;;21.08;11.77;;;;;;;;;;5038971;28;20025;-65
2023/01/21 01:52:57;;;;;;;24.10;11.98;;;;;;;;;;5037728;28;20029;-65
2023/01/21 01:55:23;;;;;;;18.88;12.32;;;;;;;;;;5038731;28;20033;-66
2023/01/21 01:57:51;;;;;;;20.23;12.63;;;;;;;;;;5044236;28;20422;-65
2023/01/21 02:00:18;;;;;;;19.95;11.45;;;;;;;;;;5036083;28;20539;-66
2023/01/21 02:03:43;;;;;;;18.63;11.48;;;;;;;;;;5040473;28;20492;-65
2023/01/21 02:05:32;;;;;;;24.08;11.40;;;;;;;;;;5033915;28;20100;-66
2023/01/21 02:07:58;;;;;;;20.52;11.15;;;;;;;;;;5036235;28;20056;-66
2023/01/21 02:10:24;;;;;;;15.30;9.02;;;;;;;;;;5039459;28;20072;-65
2023/01/21 02:12:49;;;;;;;24.05;10.70;;;;;;;;;;5039488;28;20037;-66
2023/01/21 02:15:15;;;;;;;15.68;9.63;;;;;;;;;;5042130;28;20037;-66
2023/01/21 02:18:01;;;;;;;18.98;10.65;;;;;;;;;;5041486;28;20462;-65
2023/01/21 02:21:03;;;;;;;18.70;11.07;;;;;;;;;;5041014;28;20041;-67
2023/01/21 02:24:06;;;;;;;14.23;10.07;;;;;;;;;;5037520;28;20049;-65
2023/01/21 02:26:53;;;;;;;14.30;9.82;;;;;;;;;;5034130;28;20041;-65
2023/01/21 02:29:27;;;;;;;20.35;10.85;;;;;;;;;;5034228;28;20381;-66
2023/01/21 02:32:38;;;;;;;15.80;10.20;;;;;;;;;;5037894;28;20037;-67
2023/01/21 02:35:24;;;;;;;17.98;9.77;;;;;;;;;;5027168;28;20037;-65
2023/01/21 02:38:22;;;;;;;19.02;10.82;;;;;;;;;;5045695;28;20067;-66
2023/01/21 02:41:07;;;;;;;15.98;9.95;;;;;;;;;;5037401;28;20147;-65
2023/01/21 02:43:38;;;;;;;15.02;10.00;;;;;;;;;;5034875;28;20099;-67
2023/01/21 02:46:24;;;;;;;16.00;10.13;;;;;;;;;;5043333;28;20053;-64
2023/01/21 02:48:57;;;;;;;15.10;10.93;;;;;;;;;;5042734;28;20037;-67
2023/01/21 02:51:23;;;;;;;26.90;12.52;;;;;;;;;;5033996;28;20072;-67
2023/01/21 02:53:48;;;;;;;15.43;10.27;;;;;;;;;;5032343;28;20146;-65
2023/01/21 02:56:18;;;;;;;21.30;11.98;;;;;;;;;;5041127;28;20116;-65
2023/01/21 02:58:50;;;;;;;21.52;12.10;;;;;;;;;;5038242;28;20086;-68
2023/01/21 03:01:42;;;;;;;20.63;12.13;;;;;;;;;;5038456;28;20127;-66
2023/01/21 03:04:19;;;;;;;18.50;11.23;;;;;;;;;;5034171;28;20049;-65
2023/01/21 03:07:19;;;;;;;17.30;11.45;;;;;;;;;;5041721;28;20041;-65
2023/01/21 03:09:45;;;;;;;16.83;9.32;;;;;;;;;;5043502;28;20032;-65
2023/01/21 03:12:40;;;;;;;17.77;12.02;;;;;;;;;;5036312;28;20086;-66
2023/01/21 03:18:03;;;;;;;23.17;10.70;;;;;;;;;;5041649;28;20040;-65
2023/01/21 03:20:34;;;;;;;17.50;10.98;;;;;;;;;;5039334;28;20037;-66
2023/01/21 03:23:05;;;;;;;20.30;11.30;;;;;;;;;;5042950;28;20045;-65
2023/01/21 03:25:33;;;;;;;14.07;10.00;;;;;;;;;;5033916;28;20040;-65
2023/01/21 03:28:01;;;;;;;16.58;10.75;;;;;;;;;;5043586;28;20033;-66
2023/01/21 03:30:28;;;;;;;15.93;10.20;;;;;;;;;;5036932;28;20037;-65
2023/01/21 03:32:55;;;;;;;15.05;10.35;;;;;;;;;;5021789;28;20033;-65
2023/01/21 03:35:27;;;;;;;23.25;11.45;;;;;;;;;;5038198;28;20060;-66
2023/01/21 03:38:00;;;;;;;14.57;9.85;;;;;;;;;;5032299;28;20286;-65
2023/01/21 03:40:31;;;;;;;18.10;11.45;;;;;;;;;;5035557;28;20036;-65
2023/01/21 03:42:57;;;;;;;21.77;10.57;;;;;;;;;;5021006;28;20531;-65
2023/01/21 03:45:34;;;;;;;20.95;11.05;;;;;;;;;;5037283;28;20116;-67
2023/01/21 03:48:15;;;;;;;19.63;11.05;;;;;;;;;;5038844;28;20032;-66
2023/01/21 03:50:48;;;;;;;12.18;8.98;;;;;;;;;;5029593;28;20048;-66
2023/01/21 03:53:14;;;;;;;11.13;7.95;;;;;;;;;;5033294;28;20029;-66
2023/01/21 03:55:39;;;;;;;15.07;9.48;;;;;;;;;;5038154;28;20056;-66
2023/01/21 03:58:05;;;;;;;18.50;11.00;;;;;;;;;;5035812;28;20503;-66
2023/01/21 04:00:30;;;;;;;15.60;9.75;;;;;;;;;;5038374;28;20037;-67
2023/01/21 04:02:56;;;;;;;25.67;10.30;;;;;;;;;;5037475;28;20045;-66
2023/01/21 04:05:21;;;;;;;14.35;9.50;;;;;;;;;;5038667;28;20391;-66
2023/01/21 04:07:47;;;;;;;14.27;8.77;;;;;;;;;;5037579;28;20632;-66
2023/01/21 04:10:12;;;;;;;7.72;5.57;;;;;;;;;;5035150;28;20063;-66
2023/01/21 04:12:38;;;;;;;16.40;10.35;;;;;;;;;;5043215;28;20163;-66
2023/01/21 04:15:04;;;;;;;21.33;9.88;;;;;;;;;;5042210;28;20033;-66
2023/01/21 04:17:29;;;;;;;17.05;11.10;;;;;;;;;;5041700;28;20025;-66
2023/01/21 04:19:55;;;;;;;17.05;11.05;;;;;;;;;;5044552;28;20040;-66
2023/01/21 04:22:20;;;;;;;20.58;11.13;;;;;;;;;;5038792;28;20117;-66
2023/01/21 04:24:46;;;;;;;18.92;10.70;;;;;;;;;;5040985;28;20055;-66
2023/01/21 04:27:12;;;;;;;13.52;9.85;;;;;;;;;;5038700;28;20029;-66
2023/01/21 04:29:37;;;;;;;14.43;10.07;;;;;;;;;;5038266;28;20069;-66
2023/01/21 04:32:03;;;;;;;15.45;10.25;;;;;;;;;;5037539;28;20040;-66
2023/01/21 04:34:29;;;;;;;14.18;9.00;;;;;;;;;;5040704;28;20044;-66
2023/01/21 04:36:54;;;;;;;12.93;8.55;;;;;;;;;;5041266;28;20052;-66
2023/01/21 04:39:20;;;;;;;16.67;10.43;;;;;;;;;;5036770;28;20030;-66
2023/01/21 04:41:45;;;;;;;14.23;9.68;;;;;;;;;;5039458;28;20025;-66
2023/01/21 04:44:11;;;;;;;22.65;12.45;;;;;;;;;;5038285;28;20041;-66
2023/01/21 04:46:37;;;;;;;15.98;10.27;;;;;;;;;;5042076;28;20045;-66
2023/01/21 04:49:02;;;;;;;14.63;9.80;;;;;;;;;;5037987;28;20036;-66
2023/01/21 04:51:28;;;;;;;15.98;10.45;;;;;;;;;;5041424;28;20525;-66
2023/01/21 04:53:53;;;;;;;19.00;9.65;;;;;;;;;;5026140;28;20040;-66
2023/01/21 04:56:19;;;;;;;15.93;10.35;;;;;;;;;;5035704;28;20095;-66
2023/01/21 04:58:45;;;;;;;12.63;8.73;;;;;;;;;;5039962;28;20033;-66
2023/01/21 05:01:10;;;;;;;16.27;9.65;;;;;;;;;;5047315;28;20097;-66
2023/01/21 05:03:36;;;;;;;17.20;9.85;;;;;;;;;;5055624;28;20112;-66
2023/01/21 05:06:01;;;;;;;14.23;10.18;;;;;;;;;;5056326;28;20066;-67
2023/01/21 05:08:27;;;;;;;14.98;9.43;;;;;;;;;;5044754;28;20090;-66
2023/01/21 05:10:52;;;;;;;12.77;8.75;;;;;;;;;;5039767;28;20122;-65
2023/01/21 05:13:18;;;;;;;15.38;9.70;;;;;;;;;;5038085;28;20033;-66
2023/01/21 05:15:43;;;;;;;18.55;9.50;;;;;;;;;;5037227;28;20037;-65
2023/01/21 05:18:09;;;;;;;14.30;10.18;;;;;;;;;;5041595;28;20431;-66
2023/01/21 05:20:34;;;;;;;13.38;9.18;;;;;;;;;;5037814;28;20506;-66
2023/01/21 05:23:00;;;;;;;15.10;9.85;;;;;;;;;;5034690;28;20045;-66
2023/01/21 05:25:25;;;;;;;13.15;9.55;;;;;;;;;;5041339;28;20040;-66
2023/01/21 05:27:53;;;;;;;15.55;10.25;;;;;;;;;;5041830;28;20036;-67
2023/01/21 05:30:19;;;;;;;22.35;9.63;;;;;;;;;;5040415;28;20102;-66
2023/01/21 05:32:51;;;;;;;15.25;10.05;;;;;;;;;;5040563;28;20121;-66
2023/01/21 05:35:19;;;;;;;17.55;9.00;;;;;;;;;;5043419;28;20029;-64
2023/01/21 05:37:46;;;;;;;18.63;11.02;;;;;;;;;;5036009;28;20038;-67
2023/01/21 05:40:13;;;;;;;18.15;10.63;;;;;;;;;;5039025;28;20045;-65
2023/01/21 05:42:39;;;;;;;30.17;15.35;;;;;;;;;;5036134;28;20040;-67
2023/01/21 05:45:05;;;;;;;16.15;9.65;;;;;;;;;;5038723;28;20041;-66
2023/01/21 05:47:31;;;;;;;18.77;11.60;;;;;;;;;;5041990;28;20052;-66
2023/01/21 05:49:56;;;;;;;13.32;8.65;;;;;;;;;;5035477;28;20669;-66
2023/01/21 05:52:22;;;;;;;9.50;7.75;;;;;;;;;;5021445;28;20081;-67
2023/01/21 05:54:47;;;;;;;22.17;15.07;;;;;;;;;;5041638;28;20041;-66
2023/01/21 05:57:13;;;;;;;27.40;18.67;;;;;;;;;;5034585;28;20033;-67
2023/01/21 05:59:38;;;;;;;23.63;10.77;;;;;;;;;;5042960;28;20407;-67
2023/01/21 06:02:04;;;;;;;16.10;9.23;;;;;;;;;;5041839;28;20044;-66
2023/01/21 06:04:29;;;;;;;13.05;9.13;;;;;;;;;;5033447;28;21257;-66
2023/01/21 06:06:56;;;;;;;15.68;11.75;;;;;;;;;;5041734;28;20071;-66
2023/01/21 06:09:22;;;;;;;15.23;10.13;;;;;;;;;;5035492;28;20033;-66
2023/01/21 06:11:47;;;;;;;12.98;9.52;;;;;;;;;;5034213;28;20094;-66
2023/01/21 06:14:13;;;;;;;12.35;8.15;;;;;;;;;;5039016;28;20650;-66
2023/01/21 06:16:39;;;;;;;15.27;9.00;;;;;;;;;;5035791;28;20059;-67
2023/01/21 06:19:04;;;;;;;7.65;5.88;;;;;;;;;;5036257;28;20399;-66
2023/01/21 06:21:30;;;;;;;16.50;11.05;;;;;;;;;;5021990;28;20164;-66
2023/01/21 06:23:56;;;;;;;4.20;3.90;;;;;;;;;;5038733;28;20025;-66
2023/01/21 06:26:22;;;;;;;14.98;7.95;;;;;;;;;;5034658;28;20102;-66
2023/01/21 06:28:47;;;;;;;15.77;8.13;;;;;;;;;;5036074;28;20536;-66
2023/01/21 06:31:13;;;;;;;19.15;9.50;;;;;;;;;;5038972;28;20037;-66
2023/01/21 06:33:39;;;;;;;20.55;10.35;;;;;;;;;;5032460;28;20504;-66
2023/01/21 06:36:04;;;;;;;17.90;9.88;;;;;;;;;;5034842;28;20052;-66
2023/01/21 06:38:30;;;;;;;14.45;9.75;;;;;;;;;;5036377;28;20396;-65
2023/01/21 06:40:56;;;;;;;18.92;10.88;;;;;;;;;;5035895;28;20064;-66
2023/01/21 06:43:21;;;;;;;21.73;10.00;;;;;;;;;;5035364;28;20108;-66
2023/01/21 06:45:47;;;;;;;14.25;10.00;;;;;;;;;;5042026;28;20044;-66
2023/01/21 06:48:13;;;;;;;14.88;9.05;;;;;;;;;;5037688;28;20088;-66
2023/01/21 06:50:38;;;;;;;15.65;10.25;;;;;;;;;;5039336;28;20033;-65
2023/01/21 06:53:04;;;;;;;20.63;11.32;;;;;;;;;;5044517;28;20029;-65
2023/01/21 06:55:29;;;;;;;18.17;9.32;;;;;;;;;;5033959;28;20033;-64
2023/01/21 06:57:55;;;;;;;19.52;9.27;;;;;;;;;;5036369;28;20089;-64
2023/01/21 07:00:21;;;;;;;14.90;9.40;;;;;;;;;;5030522;28;20045;-64
2023/01/21 07:02:46;;;;;;;16.13;9.50;;;;;;;;;;5036347;28;20061;-64
2023/01/21 07:05:13;;;;;;;14.05;8.55;;;;;;;;;;5038226;28;20037;-64
2023/01/21 07:07:39;;;;;;;6.55;5.10;;;;;;;;;;5036300;28;20051;-64
2023/01/21 07:10:05;;;;;;;13.75;11.23;;;;;;;;;;5042574;28;20756;-65
2023/01/21 07:12:31;;;;;;;16.10;10.70;;;;;;;;;;5033910;28;20049;-64
2023/01/21 07:14:56;;;;;;;24.45;10.38;;;;;;;;;;5035646;28;20040;-63
2023/01/21 07:17:22;;;;;;;18.65;9.35;;;;;;;;;;5030589;28;20048;-65
2023/01/21 07:19:47;;;;;;;21.65;11.52;;;;;;;;;;5043094;28;20044;-63
2023/01/21 07:22:13;;;;;;;17.58;11.45;;;;;;;;;;5036041;28;20037;-63
2023/01/21 07:24:38;;;;;;;20.77;11.75;;;;;;;;;;5035918;28;20807;-63
2023/01/21 07:27:05;;;;;;;28.30;14.25;;;;;;;;;;5039466;28;20048;-63
2023/01/21 07:29:30;;;;;;;22.95;13.10;;;;;;;;;;5040800;28;20041;-63
2023/01/21 07:31:56;;;;;;;23.10;13.68;;;;;;;;;;5038330;28;20036;-63
2023/01/21 07:34:21;;;;;;;21.50;14.10;;;;;;;;;;5042255;28;20395;-63
2023/01/21 07:36:47;;;;;;;27.88;14.48;;;;;;;;;;5041797;28;20102;-63
2023/01/21 07:39:13;;;;;;;23.13;14.77;;;;;;;;;;5020010;28;20043;-63
2023/01/21 07:41:38;;;;;;;21.73;13.25;;;;;;;;;;5035618;28;20032;-65
2023/01/21 07:44:10;;;;;;;24.42;15.02;;;;;;;;;;5026374;28;20037;-65
2023/01/21 07:46:35;;;;;;;23.10;13.85;;;;;;;;;;5035876;28;20083;-65
2023/01/21 07:49:01;;;;;;;26.90;15.07;;;;;;;;;;5034106;28;20036;-65
2023/01/21 07:51:27;;;;;;;33.47;15.15;;;;;;;;;;5036374;28;20636;-63
2023/01/21 07:53:55;;;;;;;30.15;15.55;;;;;;;;;;5032131;28;20544;-63
2023/01/21 07:56:21;;;;;;;24.33;14.30;;;;;;;;;;5036036;28;20102;-63
2023/01/21 07:58:47;;;;;;;22.17;13.88;;;;;;;;;;5037975;28;20041;-63
2023/01/21 08:01:12;;;;;;;25.17;14.45;;;;;;;;;;5035648;28;20107;-62
2023/01/21 08:03:38;;;;;;;21.98;13.52;;;;;;;;;;5036929;28;20053;-63
2023/01/21 08:06:05;;;;;;;24.83;16.33;;;;;;;;;;5037796;28;20041;-63
2023/01/21 08:08:31;;;;;;;26.95;16.40;;;;;;;;;;5030436;28;20037;-63
2023/01/21 08:10:57;;;;;;;26.75;15.82;;;;;;;;;;5041697;28;20061;-64
2023/01/21 08:13:23;;;;;;;39.97;22.60;;;;;;;;;;5035584;28;20033;-64
2023/01/21 08:15:53;;;;;;;38.05;22.40;;;;;;;;;;5032386;28;20548;-63
2023/01/21 08:18:21;;;;;;;35.15;21.73;;;;;;;;;;5036987;28;20040;-64
2023/01/21 08:20:47;;;;;;;25.65;14.52;;;;;;;;;;5035703;28;20531;-65
2023/01/21 08:23:13;;;;;;;33.25;19.05;;;;;;;;;;5035558;28;20025;-63
2023/01/21 08:25:38;;;;;;;39.13;23.13;;;;;;;;;;5031679;28;20501;-63
2023/01/21 08:28:04;;;;;;;30.67;19.38;;;;;;;;;;5013066;28;20208;-63
2023/01/21 08:30:30;;;;;;;28.27;18.30;;;;;;;;;;5034615;28;20500;-63
2023/01/21 08:32:56;;;;;;;32.83;19.20;;;;;;;;;;5039236;28;20053;-63
2023/01/21 08:35:22;;;;;;;37.28;20.55;;;;;;;;;;5032424;28;20041;-62
2023/01/21 08:37:47;;;;;;;38.65;21.45;;;;;;;;;;5033234;28;20296;-63
2023/01/21 08:40:13;;;;;;;44.20;24.45;;;;;;;;;;5016796;28;20045;-62
2023/01/21 08:42:38;;;;;;;37.97;21.75;;;;;;;;;;5035505;28;20611;-65
2023/01/21 08:45:05;;;;;;;40.13;22.63;;;;;;;;;;5033025;28;20108;-65
2023/01/21 08:47:30;;;;;;;48.25;24.67;;;;;;;;;;5014914;28;20523;-64
2023/01/21 08:49:56;;;;;;;37.85;21.65;;;;;;;;;;5032801;28;20041;-64
2023/01/21 08:52:22;;;;;;;44.13;24.52;;;;;;;;;;5036783;28;20056;-63
2023/01/21 08:54:47;;;;;;;39.42;20.98;;;;;;;;;;5031155;28;20037;-64
2023/01/21 08:57:13;;;;;;;37.03;21.38;;;;;;;;;;5030007;28;20033;-64
2023/01/21 08:59:38;;;;;;;39.17;23.00;;;;;;;;;;5021622;28;20045;-64
2023/01/21 09:02:04;;;;;;;46.75;24.50;;;;;;;;;;5038077;28;20044;-64
2023/01/21 09:04:30;;;;;;;43.08;24.55;;;;;;;;;;5036183;28;20033;-67
2023/01/21 09:06:55;;;;;;;40.58;22.35;;;;;;;;;;5030131;28;20033;-66
2023/01/21 09:09:21;;;;;;;38.63;21.40;;;;;;;;;;5037347;28;20037;-65
2023/01/21 09:11:47;;;;;;;44.10;24.75;;;;;;;;;;5036100;28;20120;-64
2023/01/21 09:14:12;;;;;;;44.22;21.30;;;;;;;;;;5037412;28;20037;-64
2023/01/21 09:16:38;;;;;;;47.20;24.83;;;;;;;;;;5033671;28;20073;-65
2023/01/21 09:19:04;;;;;;;34.47;19.35;;;;;;;;;;5030898;28;20044;-64
2023/01/21 09:21:33;;;;;;;37.35;20.02;;;;;;;;;;5032187;28;20033;-65
2023/01/21 09:23:58;;;;;;;51.50;23.88;;;;;;;;;;5041776;28;20415;-64
2023/01/21 09:26:25;;;;;;;53.13;29.40;;;;;;;;;;5037457;28;20044;-64
2023/01/21 09:28:58;;;;;;;47.05;24.60;;;;;;;;;;5036793;28;20209;-64
2023/01/21 09:31:25;;;;;;;46.38;25.13;;;;;;;;;;5034583;28;20037;-64
2023/01/21 09:33:55;;;;;;;51.30;23.67;;;;;;;;;;5038884;28;20484;-64
2023/01/21 09:36:24;;;;;;;42.80;24.02;;;;;;;;;;5036653;28;20110;-63
2023/01/21 09:38:50;;;;;;;50.20;24.95;;;;;;;;;;5038246;28;20152;-64
2023/01/21 09:41:44;;;;;;;49.17;24.42;;;;;;;;;;5036009;28;20562;-65
2023/01/21 09:44:16;;;;;;;47.13;23.45;;;;;;;;;;5038694;28;20289;-64
2023/01/21 09:47:14;;;;;;;51.42;27.05;;;;;;;;;;5035549;28;20034;-65
2023/01/21 09:49:47;;;;;;;59.75;27.55;;;;;;;;;;5031025;28;20077;-61
2023/01/21 09:52:15;;;;;;;42.38;22.15;;;;;;;;;;5035399;28;20110;-62
2023/01/21 09:54:41;;;;;;;46.50;22.67;;;;;;;;;;5034101;28;20499;-62
2023/01/21 09:57:28;;;;;;;36.35;19.77;;;;;;;;;;5036038;28;20159;-63
2023/01/21 10:00:18;;;;;;;48.75;25.58;;;;;;;;;;5033648;28;20052;-63
2023/01/21 10:02:50;;;;;;;39.72;21.15;;;;;;;;;;5036234;28;20040;-63
2023/01/21 10:05:34;;;;;;;43.17;21.42;;;;;;;;;;5035695;28;20063;-63
2023/01/21 10:08:00;;;;;;;53.28;24.75;;;;;;;;;;5035284;28;20044;-63
2023/01/21 10:10:39;;;;;;;35.63;18.88;;;;;;;;;;5038079;28;20432;-62
2023/01/21 10:13:08;;;;;;;38.97;19.77;;;;;;;;;;5020686;28;20045;-63
2023/01/21 10:15:40;;;;;;;40.97;19.50;;;;;;;;;;5032105;28;20590;-63
2023/01/21 10:18:11;;;;;;;40.92;19.65;;;;;;;;;;5031906;28;20032;-63
2023/01/21 10:20:43;;;;;;;35.85;17.67;;;;;;;;;;5036492;28;20786;-62
2023/01/21 10:23:26;;;;;;;32.88;16.38;;;;;;;;;;5036391;28;20040;-64
2023/01/21 10:25:53;;;;;;;39.55;20.42;;;;;;;;;;5035116;28;20032;-64
2023/01/21 10:28:25;;;;;;;39.50;19.85;;;;;;;;;;5035833;28;20032;-63
2023/01/21 10:30:53;;;;;;;38.50;20.38;;;;;;;;;;5036422;28;20416;-62
2023/01/21 10:33:24;;;;;;;43.10;20.95;;;;;;;;;;5032187;28;20401;-63
2023/01/21 10:36:19;;;;;;;31.42;16.85;;;;;;;;;;5031367;28;20103;-62
2023/01/21 10:39:06;;;;;;;45.55;21.95;;;;;;;;;;5015988;28;20057;-62
2023/01/21 10:41:50;;;;;;;37.08;20.75;;;;;;;;;;5034272;28;20108;-63
2023/01/21 10:44:30;;;;;;;41.72;19.95;;;;;;;;;;5034065;28;20112;-64
2023/01/21 10:47:05;;;;;;;42.45;21.23;;;;;;;;;;5032921;28;20075;-62
2023/01/21 10:49:53;;;;;;;37.92;19.08;;;;;;;;;;5037535;28;20047;-63
2023/01/21 10:52:37;;;;;;;41.92;21.30;;;;;;;;;;5038655;28;20526;-62
2023/01/21 10:55:12;;;;;;;43.40;21.67;;;;;;;;;;5034711;28;20060;-62
2023/01/21 10:57:56;;;;;;;52.05;25.20;;;;;;;;;;5031324;28;20025;-63
2023/01/21 11:00:43;;;;;;;44.15;22.48;;;;;;;;;;5035420;28;20186;-63
2023/01/21 11:03:19;;;;;;;56.25;27.08;;;;;;;;;;5036376;28;20041;-63
2023/01/21 11:05:46;;;;;;;45.35;20.40;;;;;;;;;;5033724;28;20087;-63
2023/01/21 11:08:20;;;;;;;34.55;18.80;;;;;;;;;;5019374;28;20060;-63
2023/01/21 11:10:48;;;;;;;35.50;17.45;;;;;;;;;;5016307;28;20472;-62
2023/01/21 11:13:14;;;;;;;36.05;19.63;;;;;;;;;;5021035;28;20121;-61
2023/01/21 11:15:47;;;;;;;37.72;18.77;;;;;;;;;;5037486;28;20112;-62
2023/01/21 11:18:49;;;;;;;26.13;15.05;;;;;;;;;;5033228;28;20040;-62
2023/01/21 11:21:20;;;;;;;40.60;19.63;;;;;;;;;;5033170;28;20056;-62
2023/01/21 11:24:00;;;;;;;30.33;15.85;;;;;;;;;;5034859;28;20033;-62
2023/01/21 11:26:30;;;;;;;36.22;18.98;;;;;;;;;;5017898;28;20045;-65
2023/01/21 11:29:04;;;;;;;;;;;;;;;;;;5036572;28;20079;-63
2023/01/21 11:31:30;;;;;;;37.67;17.00;;;;;;;;;;5034013;28;19948;-63
2023/01/21 11:34:04;;;;;;;36.58;17.77;;;;;;;;;;5034430;28;20713;-62
2023/01/21 11:36:30;;;;;;;36.97;18.77;;;;;;;;;;5023565;28;20636;-63
2023/01/21 11:39:05;;;;;;;34.00;20.23;;;;;;;;;;5032378;28;20036;-63
2023/01/21 11:41:32;;;;;;;33.90;17.38;;;;;;;;;;5021281;28;20037;-62
2023/01/21 11:44:15;;;;;;;39.17;20.35;;;;;;;;;;5022701;28;20103;-63
2023/01/21 11:46:40;;;;;;;38.90;20.90;;;;;;;;;;5036225;28;20041;-63
2023/01/21 11:49:06;;;;;;;32.92;19.30;;;;;;;;;;5035678;28;20036;-63
2023/01/21 11:51:37;;;;;;;35.53;19.67;;;;;;;;;;5035162;28;20156;-63
2023/01/21 11:54:07;;;;;;;36.30;18.35;;;;;;;;;;5035190;28;20541;-63
2023/01/21 11:56:34;;;;;;;35.83;19.25;;;;;;;;;;5033590;28;20713;-63
2023/01/21 11:59:00;;;;;;;42.10;19.85;;;;;;;;;;5016959;28;20116;-63
2023/01/21 12:01:26;;;;;;;44.90;21.73;;;;;;;;;;5038898;28;20108;-63
2023/01/21 12:03:54;;;;;;;28.20;15.80;;;;;;;;;;5035018;28;20041;-63
2023/01/21 12:06:26;;;;;;;35.63;19.35;;;;;;;;;;5037031;28;20040;-63
2023/01/21 12:08:56;;;;;;;39.17;18.98;;;;;;;;;;5031978;28;20030;-63
2023/01/21 12:11:28;;;;;;;37.38;20.60;;;;;;;;;;5035534;28;20519;-63
2023/01/21 12:14:23;;;;;;;36.10;18.30;;;;;;;;;;5033249;28;20149;-62
2023/01/21 12:17:15;;;;;;;35.33;19.60;;;;;;;;;;5032680;28;20060;-63
2023/01/21 12:20:19;;;;;;;29.23;16.73;;;;;;;;;;5031917;28;20040;-62
2023/01/21 12:22:52;;;;;;;28.58;14.85;;;;;;;;;;4958502;28;20122;-63
2023/01/21 12:25:37;;;;;;;36.58;18.73;;;;;;;;;;4961212;28;20577;-63
2023/01/21 12:28:24;;;;;;;31.20;16.13;;;;;;;;;;4960611;28;20122;-62
2023/01/21 12:31:01;;;;;;;36.58;17.40;;;;;;;;;;4959527;28;20050;-63
2023/01/21 12:33:30;;;;;;;34.72;21.27;;;;;;;;;;4961196;28;20049;-63
2023/01/21 12:36:00;;;;;;;41.42;18.20;;;;;;;;;;4964594;28;20034;-63
2023/01/21 12:38:33;;;;;;;31.58;17.08;;;;;;;;;;4962661;28;20039;-63
2023/01/21 12:41:03;;;;;;;36.60;17.35;;;;;;;;;;4962341;28;20070;-63
2023/01/21 12:43:39;;;;;;;32.13;16.92;;;;;;;;;;4963041;28;20035;-63
2023/01/21 12:46:16;;;;;;;32.67;18.67;;;;;;;;;;4963201;28;20042;-63
2023/01/21 12:48:54;;;;;;;29.38;16.85;;;;;;;;;;4964305;28;20038;-62
2023/01/21 12:51:26;;;;;;;25.50;11.93;;;;;;;;;;4965145;28;20058;-62
2023/01/21 12:53:51;;;;;;;29.83;16.08;;;;;;;;;;4965687;28;20399;-63
2023/01/21 12:56:25;;;;;;;36.75;16.50;;;;;;;;;;4966765;28;20510;-63
2023/01/21 12:59:24;;;;;;;31.60;15.02;;;;;;;;;;5019464;28;20041;-63
2023/01/21 13:02:04;;;;;;;32.83;17.85;;;;;;;;;;5036556;28;20080;-62
2023/01/21 13:04:35;;;;;;;30.83;16.92;;;;;;;;;;5039980;28;20037;-62
2023/01/21 13:07:10;;;;;;;28.60;15.95;;;;;;;;;;5044656;28;20053;-62
2023/01/21 13:09:57;;;;;;;34.15;16.65;;;;;;;;;;5042809;28;20068;-62
2023/01/21 13:12:25;;;;;;;42.25;20.20;;;;;;;;;;5038274;28;20041;-63
2023/01/21 13:15:03;;;;;;;31.23;16.00;;;;;;;;;;5040879;28;20116;-63
2023/01/21 13:17:32;;;;;;;27.58;17.08;;;;;;;;;;5038324;28;20095;-63
2023/01/21 13:19:58;;;;;;;33.17;17.08;;;;;;;;;;5043865;28;20037;-63
2023/01/21 13:22:38;;;;;;;45.53;23.23;;;;;;;;;;5040735;28;20366;-63
2023/01/21 13:25:41;;;;;;;25.75;15.77;;;;;;;;;;5042028;28;20045;-63
2023/01/21 13:28:29;;;;;;;33.47;17.20;;;;;;;;;;5039003;28;20030;-65
2023/01/21 13:31:18;;;;;;;28.70;15.80;;;;;;;;;;5040059;28;20099;-63
2023/01/21 13:34:06;;;;;;;31.15;17.00;;;;;;;;;;5040156;28;20037;-64
2023/01/21 13:36:41;;;;;;;26.48;13.40;;;;;;;;;;5039997;28;20558;-65
2023/01/21 13:39:34;;;;;;;33.33;17.50;;;;;;;;;;5042533;28;20091;-63
2023/01/21 13:42:30;;;;;;;26.40;15.32;;;;;;;;;;5036323;28;20041;-63
2023/01/21 13:45:21;;;;;;;31.67;15.20;;;;;;;;;;5044547;28;20047;-63
2023/01/21 13:47:46;;;;;;;23.23;13.82;;;;;;;;;;5040968;28;20040;-63
2023/01/21 13:50:29;;;;;;;28.70;14.88;;;;;;;;;;5033578;28;20033;-64
2023/01/21 13:53:13;;;;;;;24.17;13.15;;;;;;;;;;5043255;28;20389;-63
2023/01/21 13:55:50;;;;;;;26.67;13.75;;;;;;;;;;5039826;28;20076;-63
2023/01/21 13:58:22;;;;;;;29.95;15.63;;;;;;;;;;5040135;28;20052;-63
2023/01/21 14:00:56;;;;;;;32.40;17.65;;;;;;;;;;5033169;28;20040;-62
2023/01/21 14:03:43;;;;;;;32.42;17.48;;;;;;;;;;5039462;28;20041;-62
2023/01/21 14:06:18;;;;;;;40.60;20.55;;;;;;;;;;5034681;28;20119;-63
2023/01/21 14:08:56;;;;;;;35.03;16.65;;;;;;;;;;5016755;28;20060;-63
2023/01/21 14:11:30;;;;;;;36.83;16.75;;;;;;;;;;5036268;28;20042;-63
2023/01/21 14:14:20;;;;;;;33.65;19.15;;;;;;;;;;5037104;28;20035;-62
2023/01/21 14:17:12;;;;;;;35.72;18.38;;;;;;;;;;5033922;28;20083;-62
2023/01/21 14:19:59;;;;;;;38.80;20.88;;;;;;;;;;5039930;28;20407;-63
2023/01/21 14:22:34;;;;;;;33.75;16.58;;;;;;;;;;5036086;28;20039;-63
2023/01/21 14:25:15;;;;;;;35.72;18.98;;;;;;;;;;5032394;28;20057;-62
2023/01/21 14:28:10;;;;;;;33.03;17.98;;;;;;;;;;5040509;28;20028;-63
2023/01/21 14:30:42;;;;;;;41.28;19.38;;;;;;;;;;5038659;28;20032;-63
2023/01/21 14:33:33;;;;;;;38.63;18.42;;;;;;;;;;5031866;28;20037;-62
2023/01/21 14:36:05;;;;;;;36.85;17.60;;;;;;;;;;5035531;28;20474;-62
2023/01/21 14:38:40;;;;;;;33.00;16.55;;;;;;;;;;5040354;28;20049;-63
2023/01/21 14:41:08;;;;;;;37.95;17.65;;;;;;;;;;5037720;28;20045;-63
2023/01/21 14:43:35;;;;;;;30.50;16.05;;;;;;;;;;5031428;28;20044;-62
2023/01/21 14:46:20;;;;;;;33.33;17.35;;;;;;;;;;5031652;28;20343;-63
2023/01/21 14:48:57;;;;;;;24.10;13.90;;;;;;;;;;5032613;28;20080;-63